Time;durP1;ratioP1;P1;durP2;ratioP2;P2;SDS_P1;SDS_P2;PMS_P1;PMS_P2;Temp;Humidity;BMP_temperature;BMP_pressure;BME280_temperature;BME280_humidity;BME280_pressure;Samples;Min_cycle;Max_cycle;Signal;HPM_P1;HPM_P2
2022/10/12 00:00:38;;;;;;;;;;;;;;;11.15;100.00;101161.97;5551030;32;34215;-68
2022/10/12 00:03:46;;;;;;;;;;;;;;;11.17;100.00;101164.47;5538144;32;34914;-68
2022/10/12 00:06:53;;;;;;;;;;;;;;;11.23;100.00;101167.34;5550969;32;34844;-68
2022/10/12 00:10:00;;;;;;;;;;;;;;;11.27;100.00;101158.09;5551235;32;34267;-68
2022/10/12 00:13:06;;;;;;;;;;;;;;;11.34;100.00;101160.94;5551273;32;34941;-68
2022/10/12 00:16:12;;;;;;;;;;;;;;;11.48;100.00;101157.75;5551044;32;34694;-68
2022/10/12 00:19:20;;;;;;;;;;;;;;;11.68;100.00;101155.72;5537794;32;34335;-68
2022/10/12 00:22:30;;;;;;;;;;;;;;;11.64;100.00;101160.53;5551290;32;34256;-68
2022/10/12 00:25:37;;;;;;;;;;;;;;;11.62;100.00;101159.84;5550896;32;34844;-68
2022/10/12 00:28:44;;;;;;;;;;;;;;;11.67;100.00;101160.22;5550794;32;35126;-67
2022/10/12 00:31:50;;;;;;;;;;;;;;;11.60;100.00;101164.50;5550962;32;34544;-67
2022/10/12 00:34:58;;;;;;;;;;;;;;;11.57;100.00;101158.66;5550887;32;34319;-67
2022/10/12 00:38:06;;;;;;;;;;;;;;;11.66;100.00;101165.69;5537596;32;34549;-67
2022/10/12 00:41:15;;;;;;;;;;;;;;;11.56;100.00;101163.13;5551032;32;34896;-67
2022/10/12 00:44:33;;;;;;;;;;;;;;;11.48;100.00;101179.00;5536739;32;35284;-67
2022/10/12 00:47:41;;;;;;;;;;;;;;;11.53;100.00;101171.41;5550642;32;34398;-67
2022/10/12 00:50:48;;;;;;;;;;;;;;;11.55;100.00;101173.91;5550594;32;34267;-67
2022/10/12 00:53:59;;;;;;;;;;;;;;;11.51;100.00;101178.72;5550714;32;34313;-67
2022/10/12 00:57:10;;;;;;;;;;;;;;;11.55;100.00;101177.41;5537622;32;34284;-67
2022/10/12 01:00:18;;;;;;;;;;;;;;;11.55;100.00;101168.59;5537191;32;35097;-67
2022/10/12 01:03:25;;;;;;;;;;;;;;;11.69;100.00;101171.53;5536718;32;34694;-68
2022/10/12 01:06:32;;;;;;;;;;;;;;;11.82;100.00;101164.97;5550342;32;34568;-68
2022/10/12 01:09:38;;;;;;;;;;;;;;;11.76;100.00;101163.81;5550267;32;34199;-68
2022/10/12 01:12:48;;;;;;;;;;;;;;;11.66;100.00;101169.19;5550328;32;34168;-68
2022/10/12 01:16:10;;;;;;;;;;;;;;;11.83;100.00;101162.19;5550257;32;34938;-68
2022/10/12 01:19:30;;;;;;;;;;;;;;;11.87;100.00;101179.47;5537401;32;34196;-67
2022/10/12 01:22:43;;;;;;;;;;;;;;;11.69;100.00;101168.87;5550140;32;34919;-67
2022/10/12 01:26:15;;;;;;;;;;;;;;;11.62;100.00;101178.44;5550174;32;34208;-67
2022/10/12 01:29:38;;;;;;;;;;;;;;;11.63;100.00;101173.97;5550074;32;34224;-68
2022/10/12 01:32:58;;;;;;;;;;;;;;;11.57;100.00;101180.72;5550184;32;35021;-67
2022/10/12 01:36:07;;;;;;;;;;;;;;;11.56;100.00;101191.53;5549948;32;34880;-67
2022/10/12 01:39:18;;;;;;;;;;;;;;;11.42;100.00;101187.59;5536807;32;34264;-68
2022/10/12 01:42:48;;;;;;;;;;;;;;;11.22;100.00;101197.56;5549699;32;34865;-68
2022/10/12 01:46:04;;;;;;;;;;;;;;;11.10;100.00;101196.09;5549667;32;34928;-67
2022/10/12 01:49:13;;;;;;;;;;;;;;;10.95;100.00;101183.50;5536447;32;34834;-68
2022/10/12 01:52:38;;;;;;;;;;;;;;;10.87;100.00;101187.75;5549748;32;34332;-67
2022/10/12 01:55:43;;;;;;;;;;;;;;;10.79;100.00;101192.97;5535897;32;34148;-67
2022/10/12 01:58:48;;;;;;;;;;;;;;;10.72;100.00;101185.75;5551403;32;34864;-67
2022/10/12 02:02:01;;;;;;;;;;;;;;;10.64;100.00;101198.94;5552065;32;35036;-67
2022/10/12 02:05:20;;;;;;;;;;;;;;;10.62;100.00;101196.41;5538729;32;34895;-67
2022/10/12 02:08:27;;;;;;;;;;;;;;;10.55;100.00;101190.03;5552010;32;34363;-66
2022/10/12 02:11:38;;;;;;;;;;;;;;;10.52;100.00;101187.66;5552008;32;34228;-67
2022/10/12 02:14:45;;;;;;;;;;;;;;;10.45;100.00;101186.59;5552354;32;34807;-67
2022/10/12 02:17:52;;;;;;;;;;;;;;;10.48;100.00;101185.47;5552102;32;34229;-67
2022/10/12 02:20:59;;;;;;;;;;;;;;;10.49;100.00;101189.78;5551963;32;34236;-67
2022/10/12 02:24:08;;;;;;;;;;;;;;;10.41;100.00;101183.38;5551859;32;34223;-67
2022/10/12 02:27:17;;;;;;;;;;;;;;;10.44;100.00;101191.06;5538276;32;34983;-67
2022/10/12 02:30:25;;;;;;;;;;;;;;;10.49;100.00;101189.78;5552133;32;34339;-66
2022/10/12 02:33:41;;;;;;;;;;;;;;;10.41;100.00;101182.56;5538103;32;35313;-68
2022/10/12 02:36:51;;;;;;;;;;;;;;;10.38;100.00;101182.84;5551704;32;35054;-68
2022/10/12 02:40:10;;;;;;;;;;;;;;;10.35;100.00;101178.69;5552170;32;34569;-68
2022/10/12 02:43:33;;;;;;;;;;;;;;;10.33;100.00;101177.16;5551895;32;34843;-67
2022/10/12 02:46:40;;;;;;;;;;;;;;;10.21;100.00;101181.00;5551781;32;34706;-68
2022/10/12 02:49:48;;;;;;;;;;;;;;;10.17;100.00;101184.88;5537752;32;34960;-67
2022/10/12 02:52:56;;;;;;;;;;;;;;;10.12;100.00;101192.44;5551723;32;34342;-67
2022/10/12 02:56:10;;;;;;;;;;;;;;;10.19;100.00;101188.25;5551987;32;34419;-67
2022/10/12 02:59:16;;;;;;;;;;;;;;;10.13;100.00;101189.63;5537672;32;34928;-67
2022/10/12 03:02:23;;;;;;;;;;;;;;;10.21;100.00;101197.75;5538403;32;34086;-67
2022/10/12 03:05:29;;;;;;;;;;;;;;;10.26;100.00;101199.94;5551721;32;34125;-67
2022/10/12 03:08:36;;;;;;;;;;;;;;;10.33;100.00;101196.56;5550962;32;34799;-67
2022/10/12 03:11:44;;;;;;;;;;;;;;;10.46;100.00;101193.56;5551355;32;34865;-67
2022/10/12 03:14:50;;;;;;;;;;;;;;;10.64;100.00;101204.25;5537369;32;34611;-67
2022/10/12 03:17:55;;;;;;;;;;;;;;;10.73;100.00;101204.19;5551394;32;34963;-67
2022/10/12 03:21:02;;;;;;;;;;;;;;;10.77;100.00;101202.91;5551667;32;34278;-67
2022/10/12 03:24:10;;;;;;;;;;;;;;;10.81;100.00;101200.78;5551402;32;34230;-68
2022/10/12 03:27:16;;;;;;;;;;;;;;;10.81;100.00;101201.59;5551400;32;34817;-67
2022/10/12 03:30:20;;;;;;;;;;;;;;;10.93;100.00;101201.41;5551349;32;34182;-67
2022/10/12 03:33:27;;;;;;;;;;;;;;;10.89;100.00;101196.37;5551299;32;34833;-68
2022/10/12 03:36:34;;;;;;;;;;;;;;;10.95;100.00;101202.06;5537366;32;34622;-68
2022/10/12 03:39:40;;;;;;;;;;;;;;;10.93;100.00;101199.59;5551153;32;34404;-68
2022/10/12 03:42:48;;;;;;;;;;;;;;;10.88;100.00;101194.72;5551187;32;34184;-68
2022/10/12 03:45:55;;;;;;;;;;;;;;;10.86;100.00;101195.84;5551194;32;34736;-68
2022/10/12 03:49:04;;;;;;;;;;;;;;;10.85;100.00;101189.72;5551266;32;34303;-69
2022/10/12 03:52:14;;;;;;;;;;;;;;;10.85;100.00;101199.47;5551350;32;34629;-68
2022/10/12 03:55:20;;;;;;;;;;;;;;;10.85;100.00;101197.66;5551113;32;34356;-69
2022/10/12 03:58:28;;;;;;;;;;;;;;;10.81;100.00;101195.47;5551102;32;34398;-68
2022/10/12 04:01:36;;;;;;;;;;;;;;;10.81;100.00;101198.94;5551106;32;34262;-68
2022/10/12 04:04:43;;;;;;;;;;;;;;;10.68;100.00;101201.12;5551392;32;34903;-69
2022/10/12 04:07:49;;;;;;;;;;;;;;;10.69;100.00;101197.50;5540628;32;334998;-68
2022/10/12 04:10:57;;;;;;;;;;;;;;;10.58;100.00;101195.03;5537817;32;34394;-68
2022/10/12 04:14:02;;;;;;;;;;;;;;;10.52;100.00;101190.31;5537677;32;34456;-68
2022/10/12 04:17:09;;;;;;;;;;;;;;;10.39;100.00;101184.53;5537756;32;34162;-69
2022/10/12 04:20:16;;;;;;;;;;;;;;;10.41;100.00;101191.34;5549941;32;34946;-69
2022/10/12 04:23:23;;;;;;;;;;;;;;;10.30;100.00;101186.25;5551238;32;34089;-69
2022/10/12 04:26:27;;;;;;;;;;;;;;;10.29;100.00;101189.87;5550835;32;34207;-69
2022/10/12 04:29:34;;;;;;;;;;;;;;;10.18;100.00;101198.00;5550950;32;34217;-69
2022/10/12 04:32:40;;;;;;;;;;;;;;;10.17;100.00;101195.50;5550956;32;34472;-69
2022/10/12 04:35:48;;;;;;;;;;;;;;;10.08;100.00;101194.53;5536714;32;34326;-69
2022/10/12 04:38:52;;;;;;;;;;;;;;;10.01;100.00;101196.94;5550813;32;34312;-69
2022/10/12 04:42:06;;;;;;;;;;;;;;;9.95;100.00;101199.31;5550633;32;34950;-69
2022/10/12 04:45:11;;;;;;;;;;;;;;;9.98;100.00;101191.06;5550856;32;34946;-70
2022/10/12 04:48:18;;;;;;;;;;;;;;;9.87;100.00;101197.41;5537476;32;34713;-69
2022/10/12 04:51:28;;;;;;;;;;;;;;;9.79;100.00;101194.59;5524309;32;34970;-69
2022/10/12 04:54:32;;;;;;;;;;;;;;;9.77;100.00;101195.75;5537269;32;34249;-69
2022/10/12 04:57:36;;;;;;;;;;;;;;;9.77;100.00;101196.56;5550622;32;34231;-69
2022/10/12 05:00:40;;;;;;;;;;;;;;;9.73;100.00;101203.13;5536396;32;35259;-69
2022/10/12 05:03:43;;;;;;;;;;;;;;;9.72;100.00;101204.13;5550647;32;34223;-69
2022/10/12 05:06:56;;;;;;;;;;;;;;;9.70;100.00;101199.91;5550286;32;34391;-69
2022/10/12 05:10:03;;;;;;;;;;;;;;;9.68;100.00;101196.59;5550383;32;34272;-69
2022/10/12 05:13:08;;;;;;;;;;;;;;;9.67;100.00;101213.47;5550187;32;34453;-70
2022/10/12 05:16:14;;;;;;;;;;;;;;;9.69;100.00;101216.78;5550351;32;34745;-69
2022/10/12 05:19:17;;;;;;;;;;;;;;;9.76;100.00;101221.41;5549719;32;34182;-69
2022/10/12 05:22:22;;;;;;;;;;;;;;;9.88;100.00;101222.06;5523103;32;33400;-69
2022/10/12 05:25:29;;;;;;;;;;;;;;;9.96;100.00;101220.37;5548790;32;35530;-69
2022/10/12 05:28:35;;;;;;;;;;;;;;;10.11;100.00;101222.56;5549814;32;35089;-70
2022/10/12 05:31:43;;;;;;;;;;;;;;;10.24;100.00;101216.00;5550301;32;34557;-70
2022/10/12 05:34:47;;;;;;;;;;;;;;;10.37;100.00;101227.09;5538279;32;34201;-69
2022/10/12 05:37:53;;;;;;;;;;;;;;;10.50;100.00;101226.78;5551961;32;34847;-69
2022/10/12 05:40:55;;;;;;;;;;;;;;;10.61;100.00;101223.94;5538144;32;33980;-69
2022/10/12 05:44:03;;;;;;;;;;;;;;;10.76;100.00;101225.09;5537907;32;33841;-70
2022/10/12 05:47:07;;;;;;;;;;;;;;;10.92;100.00;101224.47;5551543;32;34843;-70
2022/10/12 05:50:12;;;;;;;;;;;;;;;11.04;100.00;101225.91;5537345;32;34628;-69
2022/10/12 05:53:15;;;;;;;;;;;;;;;11.20;100.00;101231.38;5538087;32;34932;-70
2022/10/12 05:56:19;;;;;;;;;;;;;;;11.37;100.00;101231.56;5537465;32;34284;-69
2022/10/12 05:59:22;;;;;;;;;;;;;;;11.45;100.00;101237.78;5537626;32;35739;-70
2022/10/12 06:02:25;;;;;;;;;;;;;;;11.56;100.00;101242.03;5551358;32;34576;-70
2022/10/12 06:05:28;;;;;;;;;;;;;;;11.71;100.00;101245.81;5551569;32;34179;-69
2022/10/12 06:08:31;;;;;;;;;;;;;;;11.84;100.00;101242.78;5551869;32;34953;-70
2022/10/12 06:11:35;;;;;;;;;;;;;;;11.94;100.00;101248.84;5551638;32;34015;-70
2022/10/12 06:14:38;;;;;;;;;;;;;;;12.00;100.00;101256.19;5537791;32;34593;-69
2022/10/12 06:17:42;;;;;;;;;;;;;;;12.19;100.00;101263.97;5551757;32;34216;-70
2022/10/12 06:20:45;;;;;;;;;;;;;;;12.36;100.00;101257.75;5551000;32;34719;-69
2022/10/12 06:23:49;;;;;;;;;;;;;;;12.59;100.00;101258.84;5537952;32;34890;-69
2022/10/12 06:26:52;;;;;;;;;;;;;;;12.71;100.00;101253.25;5551541;32;34297;-69
2022/10/12 06:29:54;;;;;;;;;;;;;;;12.97;100.00;101256.69;5537843;32;34886;-70
2022/10/12 06:32:57;;;;;;;;;;;;;;;13.15;100.00;101252.09;5551695;32;34268;-69
2022/10/12 06:36:02;;;;;;;;;;;;;;;13.33;100.00;101257.28;5524902;32;34573;-69
2022/10/12 06:39:05;;;;;;;;;;;;;;;13.48;100.00;101264.47;5551385;32;34945;-69
2022/10/12 06:42:09;;;;;;;;;;;;;;;13.61;100.00;101268.47;5551195;32;34892;-69
2022/10/12 06:45:14;;;;;;;;;;;;;;;13.69;100.00;101263.16;5551143;32;34460;-69
2022/10/12 06:48:20;;;;;;;;;;;;;;;13.98;100.00;101262.66;5537660;32;34427;-70
2022/10/12 06:51:27;;;;;;;;;;;;;;;14.21;100.00;101268.94;5538420;32;34885;-69
2022/10/12 06:54:30;;;;;;;;;;;;;;;14.51;100.00;101275.44;5551232;32;34615;-69
2022/10/12 06:57:33;;;;;;;;;;;;;;;14.79;100.00;101274.81;5537976;32;35305;-69
2022/10/12 07:00:37;;;;;;;;;;;;;;;15.12;99.34;101286.19;5551463;32;35076;-69
2022/10/12 07:03:42;;;;;;;;;;;;;;;15.54;95.00;101288.44;5537300;32;33068;-69
2022/10/12 07:06:46;;;;;;;;;;;;;;;15.89;92.36;101284.34;5551325;32;34334;-69
2022/10/12 07:09:50;;;;;;;;;;;;;;;16.09;89.43;101293.53;5537481;32;34281;-70
2022/10/12 07:12:56;;;;;;;;;;;;;;;16.18;87.48;101282.75;5551415;32;34733;-70
2022/10/12 07:16:01;;;;;;;;;;;;;;;16.26;87.22;101288.88;5537519;32;35107;-68
2022/10/12 07:19:04;;;;;;;;;;;;;;;16.25;85.41;101286.38;5538071;32;34751;-69
2022/10/12 07:22:07;;;;;;;;;;;;;;;16.15;86.16;101285.78;5537722;32;33861;-68
2022/10/12 07:25:11;;;;;;;;;;;;;;;15.75;87.97;101282.44;5537975;32;34251;-68
2022/10/12 07:28:14;;;;;;;;;;;;;;;15.47;88.76;101286.66;5551484;32;34198;-69
2022/10/12 07:31:17;;;;;;;;;;;;;;;15.69;87.95;101282.31;5551138;32;34893;-69
2022/10/12 07:34:22;;;;;;;;;;;;;;;16.07;86.44;101287.50;5537719;32;34639;-69
2022/10/12 07:37:25;;;;;;;;;;;;;;;16.33;84.49;101279.06;5551383;32;34813;-68
2022/10/12 07:40:29;;;;;;;;;;;;;;;16.37;84.30;101274.16;5525236;32;35310;-69
2022/10/12 07:43:34;;;;;;;;;;;;;;;16.36;83.22;101281.37;5550950;32;34280;-69
2022/10/12 07:46:39;;;;;;;;;;;;;;;16.64;81.98;101273.59;5550942;32;34545;-69
2022/10/12 07:49:44;;;;;;;;;;;;;;;16.39;83.06;101273.00;5551110;32;34862;-70
2022/10/12 07:52:48;;;;;;;;;;;;;;;16.56;82.39;101276.31;5550944;32;34366;-69
2022/10/12 07:55:58;;;;;;;;;;;;;;;16.55;82.30;101273.84;5536350;32;34396;-69
2022/10/12 07:59:02;;;;;;;;;;;;;;;16.29;83.84;101274.25;5524629;32;35431;-68
2022/10/12 08:02:09;;;;;;;;;;;;;;;16.57;82.46;101282.50;5536867;32;34542;-69
2022/10/12 08:05:13;;;;;;;;;;;;;;;16.74;79.95;101274.13;5537148;32;34322;-69
2022/10/12 08:08:16;;;;;;;;;;;;;;;17.02;78.11;101278.78;5550642;32;34196;-69
2022/10/12 08:11:20;;;;;;;;;;;;;;;17.09;77.41;101274.34;5536420;32;34711;-69
2022/10/12 08:14:25;;;;;;;;;;;;;;;17.18;77.86;101286.62;5536831;32;34293;-70
2022/10/12 08:17:29;;;;;;;;;;;;;;;17.40;77.13;101282.94;5550955;32;34466;-69
2022/10/12 08:20:31;;;;;;;;;;;;;;;17.55;76.20;101283.72;5550725;32;34248;-69
2022/10/12 08:23:35;;;;;;;;;;;;;;;17.86;73.55;101280.75;5537199;32;34841;-70
2022/10/12 08:26:38;;;;;;;;;;;;;;;17.90;73.11;101278.50;5550685;32;34598;-70
2022/10/12 08:29:41;;;;;;;;;;;;;;;18.27;71.68;101280.03;5550599;32;34285;-69
2022/10/12 08:32:44;;;;;;;;;;;;;;;18.16;72.32;101281.37;5550337;32;34459;-69
2022/10/12 08:35:49;;;;;;;;;;;;;;;18.18;71.98;101284.72;5550291;32;34918;-69
2022/10/12 08:38:53;;;;;;;;;;;;;;;18.17;72.16;101273.16;5550417;32;34941;-69
2022/10/12 08:42:07;;;;;;;;;;;;;;;18.16;71.92;101276.84;5524236;32;35153;-69
2022/10/12 08:45:11;;;;;;;;;;;;;;;18.38;71.13;101266.88;5550106;32;34356;-70
2022/10/12 08:48:17;;;;;;;;;;;;;;;18.79;69.92;101268.78;5550237;32;34466;-69
2022/10/12 08:51:23;;;;;;;;;;;;;;;18.84;69.17;101263.63;5550421;32;34915;-69
2022/10/12 08:54:47;;;;;;;;;;;;;;;17.68;74.05;101264.25;5550367;32;34292;-69
2022/10/12 08:57:51;;;;;;;;;;;;;;;17.38;75.27;101272.41;5549954;32;34727;-69
2022/10/12 09:01:17;;;;;;;;;;;;;;;17.55;75.11;101275.69;5550024;32;34363;-69
2022/10/12 09:04:38;;;;;;;;;;;;;;;17.32;76.28;101277.72;5535969;32;34128;-68
2022/10/12 09:07:43;;;;;;;;;;;;;;;18.14;73.95;101278.91;5536074;32;34831;-69
2022/10/12 09:11:03;;;;;;;;;;;;;;;18.60;69.92;101278.41;5549920;32;34923;-69
2022/10/12 09:14:13;;;;;;;;;;;;;;;18.34;70.06;101278.22;5550086;32;34875;-70
2022/10/12 09:17:25;;;;;;;;;;;;;;;18.93;67.79;101281.25;5536310;32;32775;-70
2022/10/12 09:20:40;;;;;;;;;;;;;;;19.08;66.33;101279.25;5536044;32;34717;-69
2022/10/12 09:23:45;;;;;;;;;;;;;;;18.87;68.15;101282.91;5535651;32;34378;-70
2022/10/12 09:26:52;;;;;;;;;;;;;;;19.07;68.04;101281.09;5535876;32;35494;-69
2022/10/12 09:29:59;;;;;;;;;;;;;;;19.51;66.43;101282.50;5549567;32;34394;-70
2022/10/12 09:33:05;;;;;;;;;;;;;;;19.22;68.02;101272.88;5549576;32;34196;-70
2022/10/12 09:36:11;;;;;;;;;;;;;;;19.40;66.24;101280.41;5550751;32;34510;-69
2022/10/12 09:39:20;;;;;;;;;;;;;;;19.55;66.17;101282.94;5536418;32;33345;-70
2022/10/12 09:42:30;;;;;;;;;;;;;;;19.61;66.01;101279.41;5549492;32;34879;-70
2022/10/12 09:45:34;;;;;;;;;;;;;;;19.65;64.79;101278.81;5535403;32;33825;-70
2022/10/12 09:48:54;;;;;;;;;;;;;;;19.91;63.23;101288.75;5549199;32;34150;-69
2022/10/12 09:51:58;;;;;;;;;;;;;;;19.60;61.94;101291.22;5535738;32;35066;-70
2022/10/12 09:55:06;;;;;;;;;;;;;;;20.05;61.71;101281.50;5534918;32;34126;-69
2022/10/12 09:58:16;;;;;;;;;;;;;;;19.45;62.70;101289.56;5549468;32;34381;-70
2022/10/12 10:01:22;;;;;;;;;;;;;;;19.93;61.64;101278.63;5535351;32;35179;-68
2022/10/12 10:04:28;;;;;;;;;;;;;;;20.31;59.65;101285.06;5548881;32;34139;-70
2022/10/12 10:07:33;;;;;;;;;;;;;;;20.35;60.07;101280.06;5522016;32;34819;-69
2022/10/12 10:10:46;;;;;;;;;;;;;;;20.51;59.45;101284.19;5535024;32;33447;-69
2022/10/12 10:13:50;;;;;;;;;;;;;;;20.52;59.97;101283.16;5549251;32;34189;-69
2022/10/12 10:16:58;;;;;;;;;;;;;;;19.84;60.52;101271.78;5548992;32;34945;-68
2022/10/12 10:20:04;;;;;;;;;;;;;;;20.29;61.46;101278.16;5537201;32;34983;-68
2022/10/12 10:23:27;;;;;;;;;;;;;;;20.32;59.35;101283.19;5551068;32;34632;-68
2022/10/12 10:26:53;;;;;;;;;;;;;;;20.34;60.47;101279.22;5537557;32;34838;-68
2022/10/12 10:30:14;;;;;;;;;;;;;;;21.09;58.37;101276.94;5522897;32;34293;-68
2022/10/12 10:33:34;;;;;;;;;;;;;;;20.94;56.60;101279.06;5537416;32;34131;-69
2022/10/12 10:36:39;;;;;;;;;;;;;;;21.24;55.48;101280.22;5551565;32;34217;-69
2022/10/12 10:39:48;;;;;;;;;;;;;;;21.43;54.73;101273.03;5538246;32;35370;-69
2022/10/12 10:42:55;;;;;;;;;;;;;;;21.35;54.93;101278.72;5551935;32;34638;-69
2022/10/12 10:46:01;;;;;;;;;;;;;;;20.91;55.97;101282.22;5537945;32;33840;-69
2022/10/12 10:49:06;;;;;;;;;;;;;;;20.45;57.48;101283.16;5551197;32;34978;-69
2022/10/12 10:52:22;;;;;;;;;;;;;;;19.91;59.66;101269.91;5537881;32;34089;-68
2022/10/12 10:55:40;;;;;;;;;;;;;;;20.30;58.42;101261.84;5537678;32;35400;-69
2022/10/12 10:58:45;;;;;;;;;;;;;;;20.58;58.56;101263.41;5551359;32;34958;-68
2022/10/12 11:01:58;;;;;;;;;;;;;;;20.54;59.24;101264.88;5537418;32;34659;-68
2022/10/12 11:05:01;;;;;;;;;;;;;;;20.52;59.03;101256.19;5551349;32;34930;-67
2022/10/12 11:08:11;;;;;;;;;;;;;;;20.92;57.07;101263.09;5525107;32;34703;-69
2022/10/12 11:11:19;;;;;;;;;;;;;;;20.69;57.91;101250.13;5550702;32;35043;-68
2022/10/12 11:14:28;;;;;;;;;;;;;;;21.17;56.75;101253.25;5551337;32;34679;-69
2022/10/12 11:17:32;;;;;;;;;;;;;;;21.48;56.30;101257.84;5551364;32;34204;-67
2022/10/12 11:20:42;;;;;;;;;;;;;;;21.34;56.64;101261.69;5551032;32;34833;-66
2022/10/12 11:23:51;;;;;;;;;;;;;;;21.49;55.88;101256.81;5551110;32;34924;-67
2022/10/12 11:27:06;;;;;;;;;;;;;;;20.85;58.22;101264.19;5551087;32;35140;-68
2022/10/12 11:30:14;;;;;;;;;;;;;;;20.80;58.39;101262.94;5550792;32;34911;-68
2022/10/12 11:33:26;;;;;;;;;;;;;;;20.88;56.03;101248.38;5551279;32;34138;-68
2022/10/12 11:36:31;;;;;;;;;;;;;;;20.83;56.15;101250.87;5537111;32;34717;-68
2022/10/12 11:39:38;;;;;;;;;;;;;;;21.66;55.30;101254.37;5551069;32;34324;-68
2022/10/12 11:42:41;;;;;;;;;;;;;;;22.30;55.18;101250.53;5551030;32;34195;-69
2022/10/12 11:45:48;;;;;;;;;;;;;;;22.36;53.38;101244.25;5537273;32;34456;-68
2022/10/12 11:48:53;;;;;;;;;;;;;;;21.77;54.87;101248.28;5551156;32;34321;-67
2022/10/12 11:52:00;;;;;;;;;;;;;;;21.84;53.42;101245.50;5524766;32;35346;-67
2022/10/12 11:55:18;;;;;;;;;;;;;;;21.49;54.58;101239.78;5537005;32;33076;-67
2022/10/12 11:58:27;;;;;;;;;;;;;;;20.92;55.85;101233.41;5536725;32;34876;-68
2022/10/12 12:02:00;;;;;;;;;;;;;;;21.86;54.60;101238.84;5539797;32;34915;-68
2022/10/12 12:05:04;;;;;;;;;;;;;;;21.21;55.16;101234.75;5550789;32;34989;-67
2022/10/12 12:08:19;;;;;;;;;;;;;;;21.13;56.67;101224.19;5536706;32;33664;-68
2022/10/12 12:11:25;;;;;;;;;;;;;;;21.40;54.57;101232.97;5550531;32;34243;-68
2022/10/12 12:14:27;;;;;;;;;;;;;;;20.98;54.42;101223.63;5537185;32;34194;-68
2022/10/12 12:17:31;;;;;;;;;;;;;;;20.77;55.25;101227.47;5523823;32;35901;-67
2022/10/12 12:20:41;;;;;;;;;;;;;;;20.40;58.20;101229.06;5551192;32;34663;-68
2022/10/12 12:23:51;;;;;;;;;;;;;;;20.45;55.73;101218.47;5550499;32;34170;-68
2022/10/12 12:26:54;;;;;;;;;;;;;;;20.70;56.49;101215.91;5524091;32;32976;-68
2022/10/12 12:29:59;;;;;;;;;;;;;;;20.87;57.12;101217.06;5550710;32;34391;-68
2022/10/12 12:33:04;;;;;;;;;;;;;;;20.19;59.58;101213.09;5550690;32;34299;-69
2022/10/12 12:36:11;;;;;;;;;;;;;;;20.77;55.48;101219.38;5524453;32;35138;-68
2022/10/12 12:39:29;;;;;;;;;;;;;;;20.23;58.56;101212.50;5537580;32;34639;-68
2022/10/12 12:42:34;;;;;;;;;;;;;;;20.35;56.99;101210.81;5549119;32;34522;-68
2022/10/12 12:45:38;;;;;;;;;;;;;;;20.28;59.38;101214.56;5536824;32;34148;-67
2022/10/12 12:48:42;;;;;;;;;;;;;;;20.62;57.95;101213.44;5550312;32;34967;-67
2022/10/12 12:51:45;;;;;;;;;;;;;;;20.44;57.26;101208.72;5550563;32;34836;-68
2022/10/12 12:55:07;;;;;;;;;;;;;;;19.95;59.80;101211.91;5550571;32;34307;-68
2022/10/12 12:58:28;;;;;;;;;;;;;;;20.46;57.49;101208.53;5523816;32;33852;-68
2022/10/12 13:01:51;;;;;;;;;;;;;;;20.94;55.63;101200.84;5550127;32;35777;-68
2022/10/12 13:05:05;;;;;;;;;;;;;;;20.86;55.73;101206.50;5536357;32;33995;-68
2022/10/12 13:08:38;;;;;;;;;;;;;;;20.60;55.77;101207.44;5523840;32;33453;-68
2022/10/12 13:12:03;;;;;;;;;;;;;;;20.13;56.80;101200.50;5537744;32;34328;-69
2022/10/12 13:15:10;;;;;;;;;;;;;;;19.86;59.82;101194.31;5550024;32;34831;-67
2022/10/12 13:18:20;;;;;;;;;;;;;;;20.12;59.70;101196.97;5536629;32;34900;-67
2022/10/12 13:21:49;;;;;;;;;;;;;;;20.24;59.21;101194.44;5536277;32;32665;-67
2022/10/12 13:24:56;;;;;;;;;;;;;;;20.17;58.79;101193.63;5549487;32;34846;-67
2022/10/12 13:28:03;;;;;;;;;;;;;;;19.70;59.79;101190.19;5536245;32;34516;-68
2022/10/12 13:31:12;;;;;;;;;;;;;;;20.23;59.42;101195.50;5535720;32;35614;-68
2022/10/12 13:34:23;;;;;;;;;;;;;;;20.15;59.14;101188.47;5548966;32;34631;-68
2022/10/12 13:37:31;;;;;;;;;;;;;;;19.97;60.26;101193.69;5535624;32;33413;-68
2022/10/12 13:40:37;;;;;;;;;;;;;;;19.85;59.75;101190.78;5549272;32;34308;-69
2022/10/12 13:43:49;;;;;;;;;;;;;;;19.89;58.83;101193.91;5549357;32;34385;-69
2022/10/12 13:47:01;;;;;;;;;;;;;;;19.65;60.03;101184.59;5549149;32;34357;-69
2022/10/12 13:50:15;;;;;;;;;;;;;;;19.73;59.87;101186.25;5548964;32;34412;-69
2022/10/12 13:53:20;;;;;;;;;;;;;;;19.98;61.89;101191.81;5550377;32;34892;-68
2022/10/12 13:56:25;;;;;;;;;;;;;;;20.02;61.09;101180.41;5551611;32;34703;-69
2022/10/12 13:59:32;;;;;;;;;;;;;;;20.03;60.21;101181.25;5537670;32;34376;-68
2022/10/12 14:02:36;;;;;;;;;;;;;;;19.93;60.60;101176.28;5551954;32;34298;-68
2022/10/12 14:05:44;;;;;;;;;;;;;;;19.82;62.97;101172.34;5551196;32;34509;-68
2022/10/12 14:08:48;;;;;;;;;;;;;;;19.75;62.82;101178.78;5551432;32;34729;-69
2022/10/12 14:11:54;;;;;;;;;;;;;;;19.49;61.62;101175.06;5537871;32;34328;-69
2022/10/12 14:14:59;;;;;;;;;;;;;;;19.42;60.42;101176.06;5551465;32;34370;-68
2022/10/12 14:18:24;;;;;;;;;;;;;;;19.33;61.68;101172.75;5551154;32;34438;-68
2022/10/12 14:21:28;;;;;;;;;;;;;;;19.16;63.60;101173.34;5550652;32;34678;-68
2022/10/12 14:24:39;;;;;;;;;;;;;;;19.39;65.60;101174.62;5537219;32;36612;-67
2022/10/12 14:27:44;;;;;;;;;;;;;;;19.55;65.24;101167.22;5550708;32;34408;-68
2022/10/12 14:30:50;;;;;;;;;;;;;;;19.60;63.98;101165.56;5550908;32;34176;-68
2022/10/12 14:33:54;;;;;;;;;;;;;;;19.56;63.23;101158.91;5536898;32;33307;-69
2022/10/12 14:37:07;;;;;;;;;;;;;;;19.62;61.89;101163.47;5536884;32;34292;-69
2022/10/12 14:40:31;;;;;;;;;;;;;;;19.34;63.00;101163.63;5536537;32;34843;-68
2022/10/12 14:43:37;;;;;;;;;;;;;;;19.16;63.13;101165.28;5537430;32;33875;-68
2022/10/12 14:46:41;;;;;;;;;;;;;;;18.61;65.94;101159.13;5550811;32;34373;-69
2022/10/12 14:49:46;;;;;;;;;;;;;;;18.87;65.51;101163.78;5550655;32;34153;-69
2022/10/12 14:52:58;;;;;;;;;;;;;;;18.87;66.17;101159.22;5550477;32;34216;-68
2022/10/12 14:56:03;;;;;;;;;;;;;;;18.43;67.45;101159.66;5536619;32;34467;-67
2022/10/12 14:59:08;;;;;;;;;;;;;;;18.27;68.49;101159.97;5550935;32;34277;-69
2022/10/12 15:02:16;;;;;;;;;;;;;;;18.24;68.49;101158.53;5550874;32;34838;-69
2022/10/12 15:05:22;;;;;;;;;;;;;;;18.18;71.08;101151.28;5549845;32;34433;-68
2022/10/12 15:08:26;;;;;;;;;;;;;;;17.88;70.45;101154.38;5523980;32;33056;-69
2022/10/12 15:11:30;;;;;;;;;;;;;;;17.74;70.56;101151.63;5550320;32;35150;-68
2022/10/12 15:14:36;;;;;;;;;;;;;;;17.76;71.48;101159.47;5550244;32;34295;-68
2022/10/12 15:17:41;;;;;;;;;;;;;;;17.72;72.54;101148.28;5536989;32;34844;-68
2022/10/12 15:20:47;;;;;;;;;;;;;;;17.47;74.99;101154.25;5536651;32;35518;-68
2022/10/12 15:23:53;;;;;;;;;;;;;;;17.44;76.70;101158.13;5536671;32;34514;-69
2022/10/12 15:26:59;;;;;;;;;;;;;;;17.31;77.24;101152.66;5537413;32;34253;-68
2022/10/12 15:30:03;;;;;;;;;;;;;;;17.18;77.88;101149.88;5550040;32;34877;-68
2022/10/12 15:33:09;;;;;;;;;;;;;;;17.04;78.34;101143.53;5536562;32;35448;-68
2022/10/12 15:36:13;;;;;;;;;;;;;;;16.82;78.34;101142.72;5536846;32;34553;-69
2022/10/12 15:39:20;;;;;;;;;;;;;;;16.67;79.46;101149.13;5536515;32;35461;-68
2022/10/12 15:42:25;;;;;;;;;;;;;;;16.62;80.24;101152.37;5550280;32;34946;-68
2022/10/12 15:45:32;;;;;;;;;;;;;;;16.47;80.89;101149.69;5550165;32;34221;-68
2022/10/12 15:48:38;;;;;;;;;;;;;;;16.38;82.71;101142.78;5550504;32;34806;-67
2022/10/12 15:51:48;;;;;;;;;;;;;;;16.27;84.24;101147.75;5550322;32;34352;-67
2022/10/12 15:54:55;;;;;;;;;;;;;;;16.15;84.69;101144.75;5549893;32;34252;-69
2022/10/12 15:58:01;;;;;;;;;;;;;;;16.05;84.63;101142.34;5536661;32;34918;-68
2022/10/12 16:01:12;;;;;;;;;;;;;;;15.98;85.60;101154.78;5550428;32;34965;-68